createdAt,value
2019-05-02T00:02:03.529Z,88.00
2019-05-02T00:04:29.843Z,87.50
2019-05-02T00:07:03.621Z,87.60
2019-05-02T00:09:33.420Z,88.30
2019-05-02T00:11:59.705Z,88.90
2019-05-02T00:14:26.263Z,88.80
2019-05-02T00:16:52.702Z,88.90
2019-05-02T00:19:19.082Z,89.20
2019-05-02T00:21:45.429Z,90.00
2019-05-02T00:24:17.025Z,90.50
2019-05-02T00:26:43.343Z,90.40
2019-05-02T00:29:09.599Z,90.00
2019-05-02T00:31:35.870Z,89.30
2019-05-02T00:34:03.391Z,89.60
2019-05-02T00:36:29.792Z,90.00
2019-05-02T00:38:56.139Z,90.20
2019-05-02T00:41:22.389Z,90.20
2019-05-02T00:43:48.706Z,90.00
2019-05-02T00:46:15.071Z,89.70
2019-05-02T00:48:43.493Z,89.00
2019-05-02T00:51:09.729Z,89.80
2019-05-02T00:53:35.865Z,90.00
2019-05-02T00:56:05.149Z,90.00
2019-05-02T00:58:31.947Z,90.20
2019-05-02T01:01:16.896Z,90.40
2019-05-02T01:03:47.185Z,90.60
2019-05-02T01:06:14.426Z,90.60
2019-05-02T01:08:41.337Z,90.40
2019-05-02T01:11:07.802Z,90.50
2019-05-02T01:13:34.199Z,90.60
2019-05-02T01:16:00.538Z,90.70
2019-05-02T01:18:26.767Z,91.10
2019-05-02T01:20:52.989Z,91.40
2019-05-02T01:23:22.986Z,91.20
2019-05-02T01:25:52.628Z,91.10
2019-05-02T01:28:26.523Z,91.20
2019-05-02T01:31:00.716Z,90.80
2019-05-02T01:33:41.826Z,91.20
2019-05-02T01:36:10.748Z,91.10
2019-05-02T01:38:41.881Z,91.10
2019-05-02T01:41:08.067Z,91.30
2019-05-02T01:43:34.363Z,91.40
2019-05-02T01:46:00.826Z,91.60
2019-05-02T01:48:27.348Z,91.80
2019-05-02T01:50:53.689Z,91.50
2019-05-02T01:53:20.166Z,91.30
2019-05-02T01:55:46.489Z,91.50
2019-05-02T01:58:14.952Z,91.70
2019-05-02T02:00:44.821Z,92.00
2019-05-02T02:03:10.398Z,91.80
2019-05-02T02:05:36.933Z,91.80
2019-05-02T02:08:03.788Z,91.80
2019-05-02T02:10:30.058Z,92.00
2019-05-02T02:13:04.773Z,92.40
2019-05-02T02:15:25.106Z,92.40
2019-05-02T02:17:52.723Z,92.00
2019-05-02T02:20:23.868Z,91.70
2019-05-02T02:22:57.949Z,91.80
2019-05-02T02:25:26.395Z,92.30
2019-05-02T02:27:54.908Z,92.70
2019-05-02T02:30:24.605Z,92.80
2019-05-02T02:32:48.717Z,92.80
2019-05-02T02:35:15.209Z,92.80
2019-05-02T02:37:52.119Z,92.50
2019-05-02T02:40:09.843Z,92.00
2019-05-02T02:42:36.224Z,91.70
2019-05-02T02:45:12.918Z,91.60
2019-05-02T02:47:35.625Z,92.20
2019-05-02T02:50:05.257Z,91.60
2019-05-02T02:52:31.158Z,91.80
2019-05-02T02:54:57.509Z,91.90
2019-05-02T02:57:28.027Z,92.20
2019-05-02T02:59:51.936Z,92.10
2019-05-02T03:02:18.183Z,92.10
2019-05-02T03:04:46.161Z,92.30
2019-05-02T03:07:24.114Z,92.40
2019-05-02T03:09:40.912Z,92.60
2019-05-02T03:12:21.243Z,92.70
2019-05-02T03:14:49.622Z,92.70
2019-05-02T03:17:20.351Z,92.70
2019-05-02T03:19:44.059Z,93.00
2019-05-02T03:22:10.314Z,93.40
2019-05-02T03:24:43.877Z,93.30
2019-05-02T03:27:04.881Z,93.50
2019-05-02T03:29:41.345Z,93.70
2019-05-02T03:32:14.891Z,93.90
2019-05-02T03:34:45.470Z,94.10
2019-05-02T03:37:03.302Z,94.10
2019-05-02T03:39:24.628Z,94.20
2019-05-02T03:41:55.675Z,94.20
2019-05-02T03:44:25.779Z,94.30
2019-05-02T03:46:47.532Z,93.60
2019-05-02T03:49:13.885Z,93.60
2019-05-02T03:51:40.356Z,93.70
2019-05-02T03:54:10.016Z,93.70
2019-05-02T03:56:35.116Z,93.80
2019-05-02T03:59:01.673Z,93.80
2019-05-02T04:01:28.554Z,93.60
2019-05-02T04:03:54.894Z,93.70
2019-05-02T04:06:23.623Z,93.90
2019-05-02T04:08:58.914Z,93.60
2019-05-02T04:11:21.163Z,93.50
2019-05-02T04:13:47.649Z,93.40
2019-05-02T04:16:17.165Z,93.60
2019-05-02T04:18:54.722Z,93.80
2019-05-02T04:21:11.854Z,94.10
2019-05-02T04:23:38.690Z,94.20
2019-05-02T04:26:06.824Z,94.50
2019-05-02T04:28:33.394Z,94.40
2019-05-02T04:30:59.626Z,94.40
2019-05-02T04:33:29.133Z,94.30
2019-05-02T04:35:54.227Z,94.70
2019-05-02T04:38:30.986Z,95.20
2019-05-02T04:40:49.578Z,95.50
2019-05-02T04:43:18.375Z,95.80
2019-05-02T04:45:52.839Z,95.10
2019-05-02T04:48:12.743Z,95.10
2019-05-02T04:50:39.007Z,94.80
2019-05-02T04:53:08.378Z,94.50
2019-05-02T04:55:33.687Z,94.50
2019-05-02T04:58:01.746Z,95.10
2019-05-02T05:00:28.936Z,95.30
2019-05-02T05:02:55.303Z,95.30
2019-05-02T05:05:25.549Z,95.10
2019-05-02T05:07:49.894Z,95.10
2019-05-02T05:10:18.453Z,95.30
2019-05-02T05:12:44.418Z,96.00
2019-05-02T05:15:15.187Z,95.80
2019-05-02T05:17:38.959Z,96.40
2019-05-02T05:20:12.252Z,96.60
2019-05-02T05:22:38.628Z,96.60
2019-05-02T05:25:03.534Z,96.70
2019-05-02T05:27:29.745Z,96.70
2019-05-02T05:29:59.556Z,96.50
2019-05-02T05:32:24.158Z,97.00
2019-05-02T05:34:50.274Z,97.00
2019-05-02T05:37:17.262Z,97.20
2019-05-02T05:39:48.822Z,97.30
2019-05-02T05:42:11.661Z,97.30
2019-05-02T05:44:39.972Z,97.60
2019-05-02T05:47:07.355Z,97.50
2019-05-02T05:49:33.887Z,97.50
2019-05-02T05:52:03.718Z,97.50
2019-05-02T05:54:28.515Z,98.00
2019-05-02T05:56:54.832Z,98.20
2019-05-02T05:59:22.296Z,98.00
2019-05-02T06:01:51.541Z,97.90
2019-05-02T06:04:22.099Z,98.20
2019-05-02T06:06:45.257Z,97.50
2019-05-02T06:09:13.791Z,97.80
2019-05-02T06:11:39.570Z,97.40
2019-05-02T06:14:05.911Z,97.90
2019-05-02T06:16:32.051Z,97.70
2019-05-02T06:18:58.497Z,97.70
2019-05-02T06:21:24.722Z,98.00
2019-05-02T06:23:50.883Z,98.20
2019-05-02T06:26:17.147Z,98.20
2019-05-02T06:28:43.361Z,97.70
2019-05-02T06:31:09.503Z,97.40
2019-05-02T06:33:35.837Z,97.40
2019-05-02T06:36:02.494Z,97.40
2019-05-02T06:38:28.902Z,97.40
2019-05-02T06:40:55.145Z,97.30
2019-05-02T06:43:21.465Z,97.70
2019-05-02T06:45:47.815Z,97.50
2019-05-02T06:48:17.631Z,97.10
2019-05-02T06:50:42.282Z,97.20
2019-05-02T06:53:09.769Z,97.10
2019-05-02T06:55:38.733Z,97.30
2019-05-02T06:58:07.967Z,97.30
2019-05-02T07:00:38.497Z,96.80
2019-05-02T07:03:04.916Z,96.70
2019-05-02T07:05:28.788Z,96.60
2019-05-02T07:07:55.186Z,96.50
2019-05-02T07:10:25.380Z,96.30
2019-05-02T07:12:51.157Z,96.70
2019-05-02T07:15:33.346Z,96.70
2019-05-02T07:17:58.860Z,96.20
2019-05-02T07:20:25.281Z,96.00
2019-05-02T07:22:51.661Z,95.60
2019-05-02T07:25:18.094Z,94.70
2019-05-02T07:27:44.552Z,94.10
2019-05-02T07:30:11.094Z,93.80
2019-05-02T07:32:37.473Z,93.80
2019-05-02T07:35:05.099Z,92.80
2019-05-02T07:37:31.365Z,92.70
2019-05-02T07:39:57.689Z,93.10
2019-05-02T07:42:23.931Z,92.80
2019-05-02T07:44:50.048Z,92.70
2019-05-02T07:47:16.191Z,92.70
2019-05-02T07:49:42.530Z,92.30
2019-05-02T07:52:08.896Z,93.30
2019-05-02T07:54:35.257Z,94.30
2019-05-02T07:57:02.434Z,93.30
2019-05-02T07:59:28.917Z,92.60
2019-05-02T08:01:55.081Z,92.70
2019-05-02T08:04:21.501Z,92.80
2019-05-02T08:06:49.753Z,93.50
2019-05-02T08:09:16.075Z,92.50
2019-05-02T08:11:42.537Z,91.90
2019-05-02T08:14:08.794Z,91.50
2019-05-02T08:16:34.983Z,90.90
2019-05-02T08:19:05.157Z,86.30
2019-05-02T08:21:32.474Z,83.40
2019-05-02T08:24:02.210Z,82.10
2019-05-02T08:26:27.398Z,81.40
2019-05-02T08:28:58.183Z,80.40
2019-05-02T08:31:24.547Z,81.00
2019-05-02T08:33:50.896Z,82.40
2019-05-02T08:36:17.233Z,77.00
2019-05-02T08:38:43.453Z,72.60
2019-05-02T08:41:09.711Z,74.90
2019-05-02T08:43:40.073Z,72.80
2019-05-02T08:46:04.475Z,74.00
2019-05-02T08:48:30.783Z,71.40
2019-05-02T08:50:56.988Z,75.40
2019-05-02T08:53:23.126Z,67.30
2019-05-02T08:55:49.267Z,66.90
2019-05-02T08:58:15.895Z,66.20
2019-05-02T09:00:42.368Z,61.90
2019-05-02T09:03:08.614Z,61.30
2019-05-02T09:05:36.973Z,58.70
2019-05-02T09:08:03.219Z,62.30
2019-05-02T09:10:30.067Z,60.70
2019-05-02T09:12:56.343Z,60.70
2019-05-02T09:15:22.589Z,58.90
2019-05-02T09:17:54.791Z,60.90
2019-05-02T09:20:20.901Z,60.30
2019-05-02T09:22:46.670Z,59.30
2019-05-02T09:25:13.898Z,59.20
2019-05-02T09:27:42.041Z,57.40
2019-05-02T09:30:09.336Z,57.70
2019-05-02T09:32:37.160Z,58.20
2019-05-02T09:35:06.201Z,55.90
2019-05-02T09:37:32.885Z,55.00
2019-05-02T09:39:59.169Z,52.00
2019-05-02T09:42:25.495Z,50.20
2019-05-02T09:44:55.781Z,52.00
2019-05-02T09:47:30.622Z,53.80
2019-05-02T09:50:12.924Z,51.20
2019-05-02T09:52:41.056Z,51.30
2019-05-02T09:55:08.347Z,48.10
2019-05-02T09:57:34.960Z,47.60
2019-05-02T10:00:02.165Z,45.60
2019-05-02T10:02:28.665Z,49.70
2019-05-02T10:04:54.947Z,48.60
2019-05-02T10:07:22.260Z,49.40
2019-05-02T10:09:48.615Z,52.60
2019-05-02T10:12:14.862Z,55.80
2019-05-02T10:14:42.142Z,58.20
2019-05-02T10:17:08.607Z,57.80
2019-05-02T10:19:35.119Z,58.70
2019-05-02T10:22:01.933Z,58.40
2019-05-02T10:24:28.326Z,59.30
2019-05-02T10:27:02.947Z,60.50
2019-05-02T10:29:28.125Z,60.30
2019-05-02T10:31:52.557Z,56.70
2019-05-02T10:34:18.908Z,56.00
2019-05-02T10:36:45.535Z,50.00
2019-05-02T10:39:15.694Z,46.60
2019-05-02T10:41:41.856Z,46.80
2019-05-02T10:44:08.140Z,45.20
2019-05-02T10:46:42.171Z,45.10
2019-05-02T10:49:16.258Z,43.10
2019-05-02T10:51:49.027Z,45.10
2019-05-02T10:54:11.995Z,43.20
2019-05-02T10:56:38.416Z,43.60
2019-05-02T10:59:04.894Z,41.80
2019-05-02T11:01:33.024Z,41.30
2019-05-02T11:04:10.199Z,41.70
2019-05-02T11:06:37.196Z,41.40
2019-05-02T11:09:08.272Z,43.20
2019-05-02T11:11:34.757Z,40.40
2019-05-02T11:14:05.998Z,38.30
2019-05-02T11:16:43.259Z,42.20
2019-05-02T11:19:13.099Z,44.80
2019-05-02T11:21:52.269Z,41.50
2019-05-02T11:24:07.587Z,41.70
2019-05-02T11:26:33.824Z,40.70
2019-05-02T11:29:00.216Z,40.40
2019-05-02T11:31:26.684Z,43.40
2019-05-02T11:33:53.000Z,46.10
2019-05-02T11:36:19.406Z,46.80
2019-05-02T11:38:49.236Z,46.40
2019-05-02T11:41:13.943Z,45.60
2019-05-02T11:43:42.241Z,42.20
2019-05-02T11:46:08.374Z,40.70
2019-05-02T11:48:34.603Z,38.90
2019-05-02T11:51:02.730Z,39.40
2019-05-02T11:53:29.662Z,38.80
2019-05-02T11:55:58.355Z,36.90
2019-05-02T11:58:23.976Z,36.40
2019-05-02T12:00:52.094Z,37.60
2019-05-02T12:03:21.946Z,38.10
2019-05-02T12:05:48.142Z,38.20
2019-05-02T12:08:14.375Z,38.60
2019-05-02T12:10:42.214Z,38.90
2019-05-02T12:13:11.938Z,41.70
2019-05-02T12:15:37.077Z,39.90
2019-05-02T12:18:03.512Z,38.50
2019-05-02T12:20:33.957Z,37.70
2019-05-02T12:22:57.870Z,37.30
2019-05-02T12:25:24.091Z,36.90
2019-05-02T12:27:52.535Z,36.90
2019-05-02T12:30:18.589Z,37.80
2019-05-02T12:32:44.832Z,39.00
2019-05-02T12:35:11.801Z,38.10
2019-05-02T12:37:38.112Z,38.20
2019-05-02T12:40:04.861Z,38.20
2019-05-02T12:42:33.086Z,39.50
2019-05-02T12:44:59.159Z,39.40
2019-05-02T12:47:25.386Z,39.10
2019-05-02T12:49:52.049Z,38.20
2019-05-02T12:52:18.287Z,34.80
2019-05-02T12:54:44.587Z,33.40
2019-05-02T12:57:12.476Z,33.80
2019-05-02T12:59:38.920Z,33.30
2019-05-02T13:02:07.243Z,33.30
2019-05-02T13:04:33.609Z,33.00
2019-05-02T13:07:02.044Z,34.80
2019-05-02T13:09:28.021Z,35.70
2019-05-02T13:11:59.232Z,33.80
2019-05-02T13:14:27.507Z,32.30
2019-05-02T13:17:01.373Z,32.90
2019-05-02T13:19:26.534Z,32.80
2019-05-02T13:21:58.230Z,33.20
2019-05-02T13:24:24.593Z,33.50
2019-05-02T13:26:52.045Z,36.10
2019-05-02T13:29:19.002Z,34.40
2019-05-02T13:32:03.959Z,33.40
2019-05-02T13:34:41.138Z,32.10
2019-05-02T13:37:08.314Z,30.20
2019-05-02T13:39:53.021Z,32.90
2019-05-02T13:42:21.842Z,31.80
2019-05-02T13:45:02.455Z,34.60
2019-05-02T13:47:28.864Z,32.70
2019-05-02T13:49:58.087Z,34.70
2019-05-02T13:52:24.230Z,33.60
2019-05-02T13:54:52.238Z,33.30
2019-05-02T13:57:18.816Z,31.80
2019-05-02T13:59:45.153Z,32.60
2019-05-02T14:02:32.563Z,35.10
2019-05-02T14:04:58.902Z,33.00
2019-05-02T14:07:25.177Z,34.10
2019-05-02T14:09:58.061Z,35.20
2019-05-02T14:12:23.383Z,34.40
2019-05-02T14:14:51.794Z,31.90
2019-05-02T14:17:18.008Z,34.80
2019-05-02T14:19:44.269Z,32.30
2019-05-02T14:22:12.743Z,32.00
2019-05-02T14:24:38.567Z,32.60
2019-05-02T14:27:07.220Z,30.80
2019-05-02T14:29:33.101Z,31.00
2019-05-02T14:31:59.343Z,33.50
2019-05-02T14:34:36.779Z,34.30
2019-05-02T14:37:03.192Z,34.60
2019-05-02T14:39:29.717Z,34.30
2019-05-02T14:41:56.172Z,34.30
2019-05-02T14:44:26.874Z,35.10
2019-05-02T14:46:52.321Z,35.50
2019-05-02T14:49:23.424Z,36.10
2019-05-02T14:51:46.805Z,35.50
2019-05-02T14:54:13.045Z,35.50
2019-05-02T14:56:57.937Z,35.30
2019-05-02T14:59:24.392Z,35.40
2019-05-02T15:01:57.906Z,37.00
2019-05-02T15:04:22.662Z,36.00
2019-05-02T15:06:48.971Z,35.20
2019-05-02T15:09:16.772Z,35.50
2019-05-02T15:11:58.373Z,36.10
2019-05-02T15:14:29.554Z,35.30
2019-05-02T15:16:58.300Z,36.80
2019-05-02T15:19:24.326Z,41.40
2019-05-02T15:21:52.470Z,44.70
2019-05-02T15:24:18.844Z,47.40
2019-05-02T15:26:45.170Z,51.00
2019-05-02T15:29:19.134Z,58.00
2019-05-02T15:32:02.042Z,70.20
2019-05-02T15:34:35.286Z,78.10
2019-05-02T15:37:02.776Z,82.80
2019-05-02T15:41:57.437Z,87.30
2019-05-02T15:44:26.876Z,88.00
2019-05-02T15:47:22.482Z,90.10
2019-05-02T15:49:45.110Z,90.50
2019-05-02T15:52:13.571Z,90.70
2019-05-02T15:54:39.840Z,90.60
2019-05-02T15:57:06.225Z,90.80
2019-05-02T15:59:37.546Z,91.10
2019-05-02T16:02:12.974Z,91.00
2019-05-02T16:04:41.789Z,91.00
2019-05-02T16:07:08.645Z,91.10
2019-05-02T16:09:35.101Z,91.10
2019-05-02T16:12:02.949Z,90.80
2019-05-02T16:14:32.440Z,90.50
2019-05-02T16:16:57.755Z,90.70
2019-05-02T16:19:29.086Z,90.90
2019-05-02T16:22:06.342Z,90.30
2019-05-02T16:24:28.580Z,90.50
2019-05-02T16:26:56.799Z,90.70
2019-05-02T16:29:26.761Z,89.40
2019-05-02T16:31:54.956Z,90.00
2019-05-02T16:34:22.674Z,89.50
2019-05-02T16:36:49.140Z,88.50
2019-05-02T16:39:15.599Z,88.60
2019-05-02T16:41:49.033Z,88.30
2019-05-02T16:44:12.578Z,87.50
2019-05-02T16:46:38.753Z,87.40
2019-05-02T16:49:08.725Z,87.40
2019-05-02T16:51:34.700Z,89.40
2019-05-02T16:54:04.898Z,89.50
2019-05-02T16:56:31.677Z,88.80
2019-05-02T16:58:58.111Z,88.50
2019-05-02T17:01:27.392Z,87.70
2019-05-02T17:03:53.152Z,87.90
2019-05-02T17:06:22.365Z,87.50
2019-05-02T17:08:59.359Z,86.60
2019-05-02T17:11:31.359Z,85.80
2019-05-02T17:13:55.734Z,85.90
2019-05-02T17:16:23.275Z,85.30
2019-05-02T17:18:55.059Z,84.90
2019-05-02T17:21:18.700Z,85.20
2019-05-02T17:23:47.458Z,85.30
2019-05-02T17:26:14.152Z,86.00
2019-05-02T17:28:43.278Z,85.50
2019-05-02T17:31:10.777Z,88.80
2019-05-02T17:33:36.468Z,86.80
2019-05-02T17:36:02.943Z,85.50
2019-05-02T17:38:29.380Z,83.70
2019-05-02T17:40:59.200Z,83.50
2019-05-02T17:43:24.821Z,85.90
2019-05-02T17:46:01.799Z,84.90
2019-05-02T17:48:29.428Z,83.70
2019-05-02T17:51:16.696Z,82.90
2019-05-02T17:53:49.461Z,83.00
2019-05-02T17:56:14.547Z,83.40
2019-05-02T17:58:39.789Z,83.90
2019-05-02T18:01:16.638Z,84.00
2019-05-02T18:03:58.312Z,83.60
2019-05-02T18:06:32.871Z,83.40
2019-05-02T18:08:55.354Z,83.80
2019-05-02T18:11:22.361Z,84.60
2019-05-02T18:13:48.845Z,83.30
2019-05-02T18:16:16.739Z,82.70
2019-05-02T18:18:52.033Z,83.70
2019-05-02T18:21:24.788Z,84.60
2019-05-02T18:23:46.603Z,84.30
2019-05-02T18:26:16.267Z,84.70
2019-05-02T18:28:49.037Z,84.20
2019-05-02T18:31:12.192Z,83.40
2019-05-02T18:33:41.006Z,83.40
2019-05-02T18:36:06.621Z,84.10
2019-05-02T18:38:34.035Z,84.50
2019-05-02T18:41:06.196Z,84.70
2019-05-02T18:43:36.021Z,85.40
2019-05-02T18:46:07.527Z,84.70
2019-05-02T18:48:31.895Z,85.50
2019-05-02T18:50:58.335Z,85.40
2019-05-02T18:53:27.263Z,86.30
2019-05-02T18:55:56.841Z,87.00
2019-05-02T18:58:22.576Z,86.90
2019-05-02T19:00:49.069Z,87.40
2019-05-02T19:03:17.323Z,88.20
2019-05-02T19:05:46.421Z,87.80
2019-05-02T19:08:12.284Z,88.60
2019-05-02T19:10:42.476Z,88.30
2019-05-02T19:13:06.980Z,88.90
2019-05-02T19:15:34.639Z,88.60
2019-05-02T19:18:02.600Z,88.90
2019-05-02T19:20:32.834Z,89.20
2019-05-02T19:22:59.247Z,90.00
2019-05-02T19:25:25.599Z,89.40
2019-05-02T19:27:57.552Z,89.40
2019-05-02T19:30:39.814Z,90.10
2019-05-02T19:33:08.376Z,90.20
2019-05-02T19:35:42.458Z,90.60
2019-05-02T19:38:06.013Z,90.70
2019-05-02T19:40:32.461Z,91.00
2019-05-02T19:43:05.170Z,91.60
2019-05-02T19:45:26.995Z,91.90
2019-05-02T19:47:56.469Z,91.90
2019-05-02T19:50:32.259Z,92.40
2019-05-02T19:53:03.706Z,92.60
2019-05-02T19:55:27.387Z,93.10
2019-05-02T19:57:56.658Z,93.70
